| time (UTC) | temp F | wind direction | speed knots | gust knots | rain 1hr in | rain 24hr in | rain mn in | humidity % | barometer mb |
| 20260507025921 | 63 | 49 | 0.0 | 0.0 | 0.00 | 0.00 | 0.00 | 32 | 1008.2 |
| 20260507023844 | 65 | 72 | 0.0 | 0.0 | 0.00 | 0.00 | 0.00 | 31 | 1007.8 |
| 20260507022814 | 66 | 78 | 0.0 | 0.0 | 0.00 | 0.00 | 0.00 | 30 | 1007.7 |
| 20260507021806 | 67 | 348 | 0.0 | 0.0 | 0.00 | 0.00 | 0.00 | 30 | 1007.5 |
| 20260507020824 | 67 | 338 | 0.0 | 3.5 | 0.00 | 0.00 | 0.00 | 29 | 1007.3 |
| 20260507013615 | 67 | 348 | 0.0 | 1.7 | 0.00 | 0.00 | 0.00 | 30 | 1007.0 |
| 20260507012623 | 67 | 312 | 0.0 | 1.7 | 0.00 | 0.00 | 0.00 | 30 | 1006.8 |
| 20260507011601 | 68 | 342 | 0.0 | 3.5 | 0.00 | 0.00 | 0.00 | 29 | 1006.5 |
| 20260507010547 | 69 | 348 | 0.0 | 2.6 | 0.00 | 0.00 | 0.00 | 29 | 1006.4 |
| 20260507005548 | 69 | 352 | 0.0 | 1.7 | 0.00 | 0.00 | 0.00 | 28 | 1006.4 |
| 20260507004543 | 70 | 348 | 0.0 | 0.0 | 0.00 | 0.00 | 0.00 | 27 | 1006.4 |
| 20260507003522 | 70 | 350 | 0.0 | 0.9 | 0.00 | 0.00 | 0.00 | 27 | 1006.3 |
| 20260507001408 | 71 | 338 | 0.0 | 1.7 | 0.00 | 0.00 | 0.00 | 25 | 1006.1 |
| 20260507000339 | 72 | 344 | 0.0 | 0.0 | 0.00 | 0.00 | 0.00 | 25 | 1005.8 |
| 20260506235309 | 73 | 344 | 0.0 | 0.0 | 0.00 | 0.00 | 0.00 | 24 | 1005.7 |
| 20260506234329 | 73 | 327 | 0.0 | 0.0 | 0.00 | 0.00 | 0.00 | 23 | 1005.8 |
| 20260506233343 | 73 | 327 | 0.0 | 0.9 | 0.00 | 0.00 | 0.00 | 23 | 1005.8 |
| 20260506232355 | 73 | 336 | 0.0 | 0.9 | 0.00 | 0.00 | 0.00 | 24 | 1005.9 |
| 20260506231335 | 73 | 340 | 0.0 | 0.0 | 0.00 | 0.00 | 0.00 | 22 | 1006.0 |
| 20260506230358 | 73 | 346 | 0.0 | 0.9 | 0.00 | 0.00 | 0.00 | 25 | 1005.9 |
| 20260506225408 | 73 | 336 | 0.0 | 0.0 | 0.00 | 0.00 | 0.00 | 23 | 1006.1 |
| 20260506223213 | 73 | 92 | 0.0 | 0.0 | 0.00 | 0.00 | 0.00 | 24 | 1006.4 |
| 20260506222159 | 73 | 29 | 0.0 | 0.0 | 0.00 | 0.00 | 0.00 | 23 | 1006.6 |
| 20260506221128 | 74 | 328 | 0.0 | 0.0 | 0.00 | 0.00 | 0.00 | 24 | 1006.6 |
| 20260506220059 | 74 | 352 | 0.0 | 0.9 | 0.00 | 0.00 | 0.00 | 23 | 1006.8 |
| 20260506215101 | 73 | 69 | 0.0 | 0.9 | 0.00 | 0.00 | 0.00 | 23 | 1006.8 |
| 20260506212950 | 72 | 113 | 0.0 | 0.0 | 0.00 | 0.00 | 0.00 | 25 | 1007.0 |
| 20260506212009 | 72 | 30 | 0.0 | 0.0 | 0.00 | 0.00 | 0.00 | 25 | 1007.0 |
| 20260506210959 | 72 | 333 | 0.0 | 0.0 | 0.00 | 0.00 | 0.00 | 24 | 1007.0 |
| 20260506204913 | 74 | 0 | 0.0 | 2.6 | 0.00 | 0.00 | 0.00 | 22 | 1007.0 |
| 20260506203926 | 75 | 340 | 0.0 | 2.6 | 0.00 | 0.00 | 0.00 | 20 | 1007.0 |
| 20260506201813 | 74 | 146 | 0.0 | 0.0 | 0.00 | 0.00 | 0.00 | 23 | 1007.2 |
| 20260506200820 | 74 | 132 | 0.0 | 0.0 | 0.00 | 0.00 | 0.00 | 23 | 1007.2 |
| 20260506195828 | 73 | 318 | 0.0 | 0.0 | 0.00 | 0.00 | 0.00 | 24 | 1007.3 |
| 20260506194852 | 73 | 50 | 0.0 | 0.0 | 0.00 | 0.00 | 0.00 | 24 | 1007.4 |
| 20260506193917 | 73 | 12 | 0.0 | 0.0 | 0.00 | 0.00 | 0.00 | 24 | 1007.5 |
| 20260506192918 | 73 | 155 | 0.0 | 0.9 | 0.00 | 0.00 | 0.00 | 24 | 1007.6 |
| 20260506185701 | 71 | 44 | 0.0 | 0.9 | 0.00 | 0.00 | 0.00 | 26 | 1008.1 |
| 20260506184637 | 70 | 112 | 0.0 | 0.0 | 0.00 | 0.00 | 0.00 | 28 | 1008.2 |
| 20260506183642 | 70 | 88 | 0.0 | 0.0 | 0.00 | 0.00 | 0.00 | 27 | 1008.3 |
| 20260506182625 | 70 | 81 | 0.0 | 0.0 | 0.00 | 0.00 | 0.00 | 27 | 1008.4 |
| 20260506181609 | 69 | 111 | 0.0 | 0.9 | 0.00 | 0.00 | 0.00 | 29 | 1008.6 |
| 20260506180604 | 68 | 92 | 0.0 | 0.9 | 0.00 | 0.00 | 0.00 | 29 | 1008.8 |
| 20260506175605 | 67 | 158 | 0.0 | 0.9 | 0.00 | 0.00 | 0.00 | 28 | 1008.9 |
| 20260506174608 | 67 | 88 | 0.0 | 0.0 | 0.00 | 0.00 | 0.00 | 28 | 1009.0 |
| 20260506173625 | 67 | 92 | 0.0 | 0.0 | 0.00 | 0.00 | 0.00 | 28 | 1009.3 |
| 20260506171502 | 65 | 79 | 0.0 | 0.0 | 0.00 | 0.00 | 0.00 | 31 | 1009.6 |
| 20260506170446 | 64 | 84 | 0.0 | 0.0 | 0.00 | 0.00 | 0.00 | 30 | 1009.9 |
| 20260506165455 | 63 | 101 | 0.0 | 0.0 | 0.00 | 0.00 | 0.00 | 32 | 1010.1 |
| 20260506164455 | 62 | 105 | 0.0 | 0.0 | 0.00 | 0.00 | 0.00 | 33 | 1010.3 |
| 20260506163450 | 60 | 82 | 0.0 | 0.0 | 0.00 | 0.00 | 0.00 | 35 | 1010.4 |
| 20260506161332 | 56 | 74 | 0.0 | 0.0 | 0.00 | 0.00 | 0.00 | 39 | 1010.7 |
| 20260506160315 | 53 | 78 | 0.0 | 0.0 | 0.00 | 0.00 | 0.00 | 41 | 1010.8 |
| 20260506155337 | 51 | 78 | 0.0 | 0.0 | 0.00 | 0.00 | 0.00 | 43 | 1011.0 |
| 20260506154330 | 49 | 75 | 0.0 | 0.0 | 0.00 | 0.00 | 0.00 | 44 | 1011.1 |
| 20260506153256 | 46 | 281 | 0.0 | 0.0 | 0.00 | 0.00 | 0.00 | 49 | 1011.3 |
| 20260506151134 | 43 | 284 | 0.0 | 0.0 | 0.00 | 0.00 | 0.00 | 51 | 1011.5 |
| 20260506150126 | 42 | 275 | 0.0 | 0.0 | 0.00 | 0.00 | 0.00 | 54 | 1011.7 |
| 20260506143942 | 39 | 248 | 0.0 | 0.0 | 0.00 | 0.00 | 0.00 | 59 | 1011.8 |
| 20260506142954 | 37 | 248 | 0.0 | 0.0 | 0.00 | 0.00 | 0.00 | 60 | 1012.0 |
| 20260506140834 | 34 | 321 | 0.0 | 0.0 | 0.00 | 0.00 | 0.00 | 62 | 1012.2 |
| 20260506135856 | 33 | 321 | 0.0 | 0.0 | 0.00 | 0.00 | 0.00 | 63 | 1012.3 |
| 20260506134828 | 33 | 279 | 0.0 | 0.0 | 0.00 | 0.00 | 0.00 | 64 | 1012.3 |
| 20260506133847 | 32 | 315 | 0.0 | 1.7 | 0.00 | 0.00 | 0.00 | 65 | 1012.3 |
| 20260506132910 | 31 | 282 | 0.0 | 0.0 | 0.00 | 0.00 | 0.00 | 66 | 1012.5 |
| 20260506131909 | 31 | 282 | 0.0 | 0.0 | 0.00 | 0.00 | 0.00 | 67 | 1012.6 |
| 20260506130931 | 30 | 282 | 0.0 | 0.0 | 0.00 | 0.00 | 0.00 | 67 | 1012.4 |
| 20260506125956 | 30 | 300 | 0.0 | 0.0 | 0.00 | 0.00 | 0.00 | 67 | 1012.5 |
| 20260506125007 | 30 | 90 | 0.0 | 0.0 | 0.00 | 0.00 | 0.00 | 67 | 1012.6 |
| 20260506123948 | 30 | 90 | 0.0 | 0.0 | 0.00 | 0.00 | 0.00 | 68 | 1012.6 |
| 20260506120640 | 30 | 90 | 0.0 | 0.0 | 0.00 | 0.00 | 0.00 | 66 | 1012.7 |
| 20260506115607 | 30 | 90 | 0.0 | 0.0 | 0.00 | 0.00 | 0.00 | 66 | 1012.8 |
| 20260506114610 | 30 | 90 | 0.0 | 0.0 | 0.00 | 0.00 | 0.00 | 67 | 1013.0 |
| 20260506113623 | 30 | 90 | 0.0 | 0.0 | 0.00 | 0.00 | 0.00 | 67 | 1013.1 |
| 20260506112625 | 30 | 90 | 0.0 | 0.0 | 0.00 | 0.00 | 0.00 | 66 | 1013.1 |
| 20260506111553 | 31 | 90 | 0.0 | 0.0 | 0.00 | 0.00 | 0.00 | 65 | 1013.3 |
| 20260506105407 | 31 | 90 | 0.0 | 0.0 | 0.00 | 0.00 | 0.00 | 63 | 1013.6 |
| 20260506104406 | 32 | 90 | 0.0 | 0.0 | 0.00 | 0.00 | 0.00 | 63 | 1013.5 |
| 20260506103415 | 32 | 90 | 0.0 | 0.0 | 0.00 | 0.00 | 0.00 | 61 | 1013.7 |
| 20260506101235 | 33 | 90 | 0.0 | 0.0 | 0.00 | 0.00 | 0.00 | 60 | 1014.1 |
| 20260506095126 | 33 | 90 | 0.0 | 0.0 | 0.00 | 0.00 | 0.00 | 59 | 1014.4 |
| 20260506093004 | 33 | 91 | 0.0 | 0.0 | 0.00 | 0.00 | 0.00 | 57 | 1014.8 |
| 20260506091929 | 34 | 91 | 0.0 | 0.0 | 0.00 | 0.00 | 0.00 | 57 | 1014.8 |
| 20260506090933 | 34 | 91 | 0.0 | 0.0 | 0.00 | 0.00 | 0.00 | 57 | 1014.9 |
| 20260506085922 | 34 | 86 | 0.0 | 0.0 | 0.00 | 0.00 | 0.00 | 56 | 1015.1 |
| 20260506084851 | 34 | 78 | 0.0 | 0.0 | 0.00 | 0.00 | 0.00 | 56 | 1015.3 |
| 20260506083831 | 34 | 77 | 0.0 | 0.0 | 0.00 | 0.00 | 0.00 | 56 | 1015.4 |
| 20260506082852 | 34 | 77 | 0.0 | 0.0 | 0.00 | 0.00 | 0.00 | 56 | 1015.5 |
| 20260506081834 | 35 | 77 | 0.0 | 0.0 | 0.00 | 0.00 | 0.00 | 55 | 1015.7 |
| 20260506080850 | 35 | 77 | 0.0 | 0.0 | 0.00 | 0.00 | 0.00 | 54 | 1015.8 |
| 20260506071724 | 36 | 73 | 0.0 | 0.0 | 0.00 | 0.00 | 0.00 | 52 | 1016.2 |
| 20260506070748 | 36 | 73 | 0.0 | 0.0 | 0.00 | 0.00 | 0.00 | 51 | 1016.3 |
| 20260506062359 | 38 | 58 | 0.0 | 0.0 | 0.00 | 0.00 | 0.00 | 48 | 1017.1 |
| 20260506061337 | 38 | 74 | 0.0 | 1.7 | 0.00 | 0.00 | 0.00 | 48 | 1017.3 |
| 20260506060346 | 38 | 64 | 0.0 | 0.0 | 0.00 | 0.00 | 0.00 | 47 | 1017.2 |
| 20260506051056 | 40 | 66 | 0.0 | 0.0 | 0.00 | 0.00 | 0.00 | 45 | 1017.7 |
| 20260506045050 | 41 | 108 | 0.0 | 0.0 | 0.00 | 0.00 | 0.00 | 46 | 1017.9 |
| 20260506043002 | 42 | 108 | 0.0 | 0.0 | 0.00 | 0.00 | 0.00 | 44 | 1017.9 |
| 20260506041953 | 42 | 108 | 0.0 | 0.0 | 0.00 | 0.00 | 0.00 | 43 | 1017.8 |
| 20260506041014 | 43 | 108 | 0.0 | 0.0 | 0.00 | 0.00 | 0.00 | 42 | 1017.9 |
| 20260506040038 | 43 | 108 | 0.0 | 0.0 | 0.00 | 0.00 | 0.00 | 42 | 1018.0 |
| 20260506033927 | 44 | 121 | 0.0 | 0.9 | 0.00 | 0.00 | 0.00 | 39 | 1018.0 |
| 20260506032941 | 45 | 84 | 0.0 | 0.0 | 0.00 | 0.00 | 0.00 | 39 | 1018.0 |
| 20260506031913 | 45 | 73 | 0.0 | 0.0 | 0.00 | 0.00 | 0.00 | 37 | 1017.9 |
| 20260506030844 | 46 | 73 | 0.0 | 0.0 | 0.00 | 0.00 | 0.00 | 37 | 1017.9 |